createdAt,value
2022-12-31T00:01:31.455Z,0.50
2022-12-31T00:04:01.909Z,0.50
2022-12-31T00:06:39.304Z,0.50
2022-12-31T00:09:31.238Z,0.60
2022-12-31T00:12:03.625Z,0.70
2022-12-31T00:14:44.701Z,0.50
2022-12-31T00:17:22.720Z,0.50
2022-12-31T00:20:12.947Z,0.60
2022-12-31T00:22:48.191Z,0.50
2022-12-31T00:25:23.131Z,0.50
2022-12-31T00:27:59.687Z,0.50
2022-12-31T00:30:28.415Z,0.50
2022-12-31T00:33:14.486Z,0.60
2022-12-31T00:35:45.629Z,0.50
2022-12-31T00:38:15.832Z,0.50
2022-12-31T00:40:46.065Z,0.60
2022-12-31T00:43:42.736Z,0.50
2022-12-31T00:46:18.601Z,0.50
2022-12-31T00:48:51.429Z,0.60
2022-12-31T00:51:31.895Z,0.50
2022-12-31T00:54:05.022Z,0.60
2022-12-31T00:56:39.808Z,0.80
2022-12-31T00:59:17.207Z,0.60
2022-12-31T01:01:48.337Z,0.50
2022-12-31T01:05:36.613Z,0.70
2022-12-31T01:07:31.180Z,0.50
2022-12-31T01:10:14.444Z,0.50
2022-12-31T01:13:00.285Z,0.50
2022-12-31T01:15:36.159Z,0.60
2022-12-31T01:18:17.428Z,0.50
2022-12-31T01:20:53.409Z,0.50
2022-12-31T01:23:43.319Z,0.50
2022-12-31T01:26:16.362Z,0.60
2022-12-31T01:28:49.916Z,8.10
2022-12-31T01:31:22.102Z,1.73
2022-12-31T01:34:02.359Z,0.50
2022-12-31T01:36:47.243Z,0.60
2022-12-31T01:39:26.454Z,0.50
2022-12-31T01:43:18.214Z,0.50
2022-12-31T01:45:18.917Z,0.50
2022-12-31T01:48:14.048Z,0.50
2022-12-31T01:50:43.179Z,0.60
2022-12-31T01:53:22.216Z,0.50
2022-12-31T01:56:02.767Z,0.50
2022-12-31T01:58:49.540Z,0.53
2022-12-31T02:01:23.476Z,0.50
2022-12-31T02:04:22.657Z,0.50
2022-12-31T02:06:53.653Z,0.57
2022-12-31T02:09:26.918Z,0.50
2022-12-31T02:12:16.512Z,0.50
2022-12-31T02:15:18.879Z,1.13
2022-12-31T02:18:09.450Z,0.80
2022-12-31T02:21:23.883Z,0.50
2022-12-31T02:24:09.644Z,0.50
2022-12-31T02:26:49.459Z,0.50
2022-12-31T02:29:54.009Z,0.50
2022-12-31T02:34:19.007Z,0.50
2022-12-31T02:39:33.188Z,0.50
2022-12-31T02:42:39.501Z,0.50
2022-12-31T02:45:20.011Z,0.50
2022-12-31T02:48:03.392Z,0.50
2022-12-31T02:54:14.003Z,0.50
2022-12-31T03:00:49.655Z,0.50
2022-12-31T03:04:00.808Z,0.70
2022-12-31T03:06:45.887Z,0.50
2022-12-31T03:09:27.757Z,0.50
2022-12-31T03:12:47.796Z,1.50
2022-12-31T03:15:57.939Z,1.00
2022-12-31T03:22:16.800Z,0.50
2022-12-31T03:29:12.014Z,0.60
2022-12-31T03:31:36.603Z,0.50
2022-12-31T03:34:22.124Z,0.70
2022-12-31T03:37:18.990Z,0.50
2022-12-31T03:40:01.085Z,0.50
2022-12-31T03:42:29.915Z,0.50
2022-12-31T03:45:00.011Z,0.50
2022-12-31T03:47:36.083Z,0.50
2022-12-31T03:50:35.012Z,0.60
2022-12-31T03:53:16.764Z,0.90
2022-12-31T03:56:09.155Z,0.60
2022-12-31T03:59:10.653Z,0.50
2022-12-31T04:02:08.106Z,0.50
2022-12-31T04:04:35.974Z,0.50
2022-12-31T04:07:08.720Z,0.90
2022-12-31T04:10:07.502Z,0.50
2022-12-31T04:12:36.188Z,0.50
2022-12-31T04:21:40.922Z,0.50
2022-12-31T04:24:42.584Z,0.50
2022-12-31T04:27:40.002Z,0.60
2022-12-31T04:30:18.515Z,0.50
2022-12-31T04:33:01.460Z,0.70
2022-12-31T04:36:36.548Z,0.90
2022-12-31T04:42:21.044Z,0.50
2022-12-31T04:45:24.744Z,0.60
2022-12-31T04:50:59.557Z,0.50
2022-12-31T04:57:16.510Z,0.50
2022-12-31T05:00:00.218Z,0.50
2022-12-31T05:02:58.904Z,0.50
2022-12-31T05:11:29.963Z,0.50
2022-12-31T05:17:07.767Z,0.50
2022-12-31T05:20:00.706Z,0.50
2022-12-31T05:23:10.484Z,0.57
2022-12-31T05:25:45.096Z,0.50
2022-12-31T05:34:56.397Z,0.50
2022-12-31T05:39:07.693Z,0.60
2022-12-31T05:40:33.949Z,0.50
2022-12-31T05:43:47.921Z,0.50
2022-12-31T05:46:30.722Z,0.50
2022-12-31T05:52:25.898Z,0.60
2022-12-31T05:55:28.541Z,0.50
2022-12-31T05:58:00.184Z,0.50
2022-12-31T06:00:57.109Z,0.50
2022-12-31T06:03:40.931Z,0.70
2022-12-31T06:07:03.938Z,0.60
2022-12-31T06:09:24.342Z,0.50
2022-12-31T06:12:08.461Z,0.50
2022-12-31T06:14:52.903Z,0.60
2022-12-31T06:20:45.873Z,0.60
2022-12-31T06:29:59.399Z,1.07
2022-12-31T06:32:43.670Z,0.80
2022-12-31T06:35:17.696Z,0.50
2022-12-31T06:37:52.102Z,0.73
2022-12-31T06:40:35.701Z,0.50
2022-12-31T06:43:17.323Z,0.80
2022-12-31T06:45:49.071Z,1.23
2022-12-31T06:48:24.374Z,0.50
2022-12-31T06:50:53.236Z,0.60
2022-12-31T06:53:24.455Z,0.70
2022-12-31T06:56:02.740Z,0.60
2022-12-31T06:58:31.834Z,0.50
2022-12-31T07:01:25.164Z,0.57
2022-12-31T07:04:11.989Z,0.50
2022-12-31T07:06:55.075Z,0.50
2022-12-31T07:09:43.935Z,0.50
2022-12-31T07:12:45.011Z,0.70
2022-12-31T07:18:21.131Z,0.97
2022-12-31T07:21:11.159Z,0.60
2022-12-31T07:24:07.636Z,1.17
2022-12-31T07:27:15.417Z,1.37
2022-12-31T07:29:54.416Z,0.50
2022-12-31T07:32:55.839Z,0.60
2022-12-31T07:35:59.186Z,0.60
2022-12-31T07:38:39.014Z,0.60
2022-12-31T07:41:21.784Z,0.50
2022-12-31T07:43:56.143Z,0.70
2022-12-31T07:46:54.098Z,0.60
2022-12-31T07:49:40.929Z,0.60
2022-12-31T07:52:21.425Z,0.60
2022-12-31T07:55:09.296Z,0.50
2022-12-31T07:57:45.084Z,0.60
2022-12-31T08:00:29.717Z,0.60
2022-12-31T08:03:27.910Z,0.57
2022-12-31T08:06:05.694Z,0.60
2022-12-31T08:08:38.890Z,0.50
2022-12-31T08:11:28.418Z,1.33
2022-12-31T08:14:18.876Z,0.60
2022-12-31T08:16:55.313Z,0.60
2022-12-31T08:19:33.777Z,1.00
2022-12-31T08:22:15.601Z,0.70
2022-12-31T08:24:59.424Z,0.83
2022-12-31T08:27:38.763Z,1.90
2022-12-31T08:30:15.275Z,1.37
2022-12-31T08:32:46.713Z,0.83
2022-12-31T08:35:24.344Z,0.90
2022-12-31T08:38:00.737Z,1.37
2022-12-31T08:40:33.706Z,0.50
2022-12-31T08:43:28.758Z,0.67
2022-12-31T08:46:05.656Z,0.80
2022-12-31T08:48:41.806Z,0.70
2022-12-31T08:51:11.664Z,1.17
2022-12-31T08:53:40.263Z,0.60
2022-12-31T08:56:11.280Z,1.00
2022-12-31T08:58:43.609Z,0.50
2022-12-31T09:01:13.039Z,0.60
2022-12-31T09:03:46.983Z,0.70
2022-12-31T09:06:20.138Z,1.00
2022-12-31T09:08:52.435Z,1.13
2022-12-31T09:11:24.951Z,0.90
2022-12-31T09:14:13.904Z,0.60
2022-12-31T09:16:47.158Z,0.80
2022-12-31T09:19:17.105Z,0.70
2022-12-31T09:21:47.499Z,0.60
2022-12-31T09:24:16.960Z,0.50
2022-12-31T09:26:50.570Z,0.97
2022-12-31T09:29:26.291Z,1.10
2022-12-31T09:31:58.329Z,0.60
2022-12-31T09:34:31.332Z,0.60
2022-12-31T09:37:03.153Z,0.63
2022-12-31T09:39:35.357Z,0.80
2022-12-31T09:42:16.164Z,0.80
2022-12-31T09:44:59.324Z,0.60
2022-12-31T09:47:47.024Z,0.53
2022-12-31T09:50:39.227Z,0.70
2022-12-31T09:53:20.790Z,0.50
2022-12-31T09:55:51.986Z,0.90
2022-12-31T09:58:28.219Z,1.53
2022-12-31T10:01:07.863Z,1.43
2022-12-31T10:03:42.870Z,1.77
2022-12-31T10:06:19.976Z,0.60
2022-12-31T10:09:11.551Z,1.13
2022-12-31T10:11:51.343Z,2.37
2022-12-31T10:14:27.658Z,0.80
2022-12-31T10:17:00.971Z,0.90
2022-12-31T10:19:47.424Z,0.50
2022-12-31T10:22:27.341Z,0.70
2022-12-31T10:25:07.517Z,0.50
2022-12-31T10:27:48.283Z,0.60
2022-12-31T10:33:45.463Z,0.50
2022-12-31T10:39:59.712Z,0.70
2022-12-31T10:43:05.644Z,0.60
2022-12-31T10:45:56.998Z,0.60
2022-12-31T10:49:00.147Z,0.60
2022-12-31T10:52:41.516Z,0.50
2022-12-31T10:55:38.757Z,0.70
2022-12-31T10:58:47.162Z,0.60
2022-12-31T11:04:59.982Z,0.70
2022-12-31T11:08:08.279Z,1.37
2022-12-31T11:11:25.518Z,2.20
2022-12-31T11:14:17.904Z,0.50
2022-12-31T11:17:05.529Z,0.50
2022-12-31T11:20:04.988Z,0.60
2022-12-31T11:22:54.403Z,0.63
2022-12-31T11:25:33.914Z,1.33
2022-12-31T11:28:29.198Z,0.67
2022-12-31T11:31:28.356Z,0.60
2022-12-31T11:34:08.118Z,1.10
2022-12-31T11:36:40.979Z,1.57
2022-12-31T11:39:30.744Z,0.60
2022-12-31T11:42:05.197Z,0.60
2022-12-31T11:44:37.633Z,1.70
2022-12-31T11:47:14.460Z,0.60
2022-12-31T11:50:03.983Z,0.70
2022-12-31T11:52:45.717Z,0.70
2022-12-31T11:55:40.834Z,0.60
2022-12-31T11:58:14.767Z,0.60
2022-12-31T12:00:48.119Z,0.87
2022-12-31T12:03:16.532Z,0.60
2022-12-31T12:05:47.011Z,1.90
2022-12-31T12:08:20.647Z,0.70
2022-12-31T12:10:53.538Z,0.80
2022-12-31T12:13:24.572Z,0.50
2022-12-31T12:15:54.140Z,0.50
2022-12-31T12:18:29.165Z,0.97
2022-12-31T12:21:13.087Z,0.50
2022-12-31T12:23:45.242Z,0.80
2022-12-31T12:26:31.655Z,0.83
2022-12-31T12:29:14.324Z,1.23
2022-12-31T12:32:05.934Z,1.33
2022-12-31T12:34:51.411Z,0.77
2022-12-31T12:37:39.342Z,0.60
2022-12-31T12:40:35.227Z,0.70
2022-12-31T12:43:07.039Z,1.03
2022-12-31T12:45:58.060Z,0.60
2022-12-31T12:52:10.494Z,0.60
2022-12-31T12:55:09.731Z,0.60
2022-12-31T12:57:45.045Z,0.60
2022-12-31T13:00:25.865Z,0.60
2022-12-31T13:03:09.212Z,6.53
2022-12-31T13:05:43.242Z,1.13
2022-12-31T13:08:19.133Z,0.70
2022-12-31T13:10:53.484Z,1.10
2022-12-31T13:13:30.174Z,0.80
2022-12-31T13:16:01.232Z,0.60
2022-12-31T13:18:35.306Z,1.17
2022-12-31T13:21:07.759Z,0.60
2022-12-31T13:23:41.834Z,0.50
2022-12-31T13:26:18.200Z,0.60
2022-12-31T13:28:56.873Z,0.67
2022-12-31T13:31:28.368Z,2.47
2022-12-31T13:33:58.580Z,1.13
2022-12-31T13:36:28.874Z,0.70
2022-12-31T13:39:22.061Z,0.60
2022-12-31T13:42:05.401Z,0.50
2022-12-31T13:44:39.881Z,0.60
2022-12-31T13:47:14.322Z,0.50
2022-12-31T13:49:45.172Z,0.73
2022-12-31T13:52:18.810Z,0.50
2022-12-31T13:54:55.259Z,0.70
2022-12-31T13:57:31.026Z,0.70
2022-12-31T14:00:11.522Z,0.70
2022-12-31T14:02:48.155Z,0.80
2022-12-31T14:05:36.314Z,0.73
2022-12-31T14:08:23.694Z,0.87
2022-12-31T14:11:11.178Z,0.63
2022-12-31T14:13:49.837Z,0.70
2022-12-31T14:16:33.679Z,0.80
2022-12-31T14:19:12.493Z,1.47
2022-12-31T14:21:50.493Z,0.90
2022-12-31T14:24:24.547Z,0.87
2022-12-31T14:27:02.041Z,0.90
2022-12-31T14:29:48.152Z,1.00
2022-12-31T14:32:43.375Z,0.90
2022-12-31T14:35:30.717Z,0.70
2022-12-31T14:38:05.651Z,1.00
2022-12-31T14:40:43.294Z,1.17
2022-12-31T14:43:18.619Z,1.67
2022-12-31T14:45:53.351Z,1.93
2022-12-31T14:48:29.618Z,0.80
2022-12-31T14:51:02.626Z,0.87
2022-12-31T14:53:31.874Z,0.70
2022-12-31T14:56:01.679Z,0.70
2022-12-31T14:58:34.627Z,0.70
2022-12-31T15:01:04.660Z,1.03
2022-12-31T15:03:44.993Z,1.73
2022-12-31T15:06:27.282Z,1.37
2022-12-31T15:09:08.233Z,0.70
2022-12-31T15:11:47.301Z,1.80
2022-12-31T15:14:24.769Z,0.90
2022-12-31T15:16:57.780Z,0.60
2022-12-31T15:19:35.023Z,1.43
2022-12-31T15:22:06.461Z,0.80
2022-12-31T15:24:37.462Z,0.70
2022-12-31T15:27:07.094Z,4.30
2022-12-31T15:29:45.450Z,0.90
2022-12-31T15:32:22.426Z,1.60
2022-12-31T15:35:01.913Z,2.80
2022-12-31T15:37:32.164Z,3.57
2022-12-31T15:40:07.757Z,6.10
2022-12-31T15:42:50.617Z,3.33
2022-12-31T15:45:23.481Z,2.93
2022-12-31T15:47:56.832Z,1.43
2022-12-31T15:50:29.745Z,1.93
2022-12-31T15:52:59.005Z,1.80
2022-12-31T15:55:29.096Z,2.27
2022-12-31T15:57:58.773Z,6.43
2022-12-31T16:00:38.487Z,3.70
2022-12-31T16:03:20.088Z,7.60
2022-12-31T16:05:50.219Z,2.67
2022-12-31T16:08:21.323Z,43.57
2022-12-31T16:10:49.970Z,9.27
2022-12-31T16:13:22.063Z,9.03
2022-12-31T16:15:51.347Z,6.90
2022-12-31T16:18:23.052Z,9.77
2022-12-31T16:20:54.492Z,3.80
2022-12-31T16:23:29.351Z,5.87
2022-12-31T16:25:59.519Z,3.50
2022-12-31T16:28:37.579Z,6.93
2022-12-31T16:31:08.188Z,12.23
2022-12-31T16:33:36.612Z,11.43
2022-12-31T16:36:21.474Z,5.47
2022-12-31T16:38:59.617Z,6.93
2022-12-31T16:41:57.271Z,3.33
2022-12-31T16:44:29.750Z,3.40
2022-12-31T16:47:08.771Z,2.00
2022-12-31T16:49:46.709Z,2.50
2022-12-31T16:52:34.108Z,3.40
2022-12-31T16:55:04.169Z,6.00
2022-12-31T16:57:34.725Z,4.97
2022-12-31T17:00:04.298Z,6.60
2022-12-31T17:02:37.114Z,4.77
2022-12-31T17:05:06.038Z,4.77
2022-12-31T17:07:41.728Z,2.40
2022-12-31T17:10:18.731Z,2.90
2022-12-31T17:13:25.589Z,3.40
2022-12-31T17:16:12.727Z,1.77
2022-12-31T17:18:47.033Z,5.97
2022-12-31T17:21:37.123Z,181.20
2022-12-31T17:24:33.438Z,243.87
2022-12-31T17:27:19.930Z,158.00
2022-12-31T17:29:49.036Z,258.80
2022-12-31T17:32:31.616Z,214.67
2022-12-31T17:35:00.296Z,203.53
2022-12-31T17:37:32.319Z,140.17
2022-12-31T17:40:40.888Z,110.50
2022-12-31T17:42:53.750Z,57.07
2022-12-31T17:45:23.534Z,17.90
2022-12-31T17:48:13.128Z,42.63
2022-12-31T17:50:54.641Z,15.93
2022-12-31T17:53:23.447Z,8.90
2022-12-31T17:56:07.150Z,7.57
2022-12-31T17:58:47.521Z,8.90
2022-12-31T18:01:26.142Z,6.03
2022-12-31T18:04:07.158Z,14.90
2022-12-31T18:06:35.997Z,17.63
2022-12-31T18:09:10.470Z,19.63
2022-12-31T18:11:40.009Z,8.10
2022-12-31T18:14:15.877Z,9.20
2022-12-31T18:16:45.903Z,8.87
2022-12-31T18:19:45.710Z,8.13
2022-12-31T18:22:04.635Z,7.13
2022-12-31T18:24:32.917Z,10.47
2022-12-31T18:27:01.361Z,6.20
2022-12-31T18:29:31.173Z,7.57
2022-12-31T18:31:59.949Z,3.97
2022-12-31T18:34:28.437Z,11.47
2022-12-31T18:36:57.149Z,9.03
2022-12-31T18:39:46.360Z,4.67
2022-12-31T18:42:21.252Z,8.50
2022-12-31T18:44:54.327Z,8.57
2022-12-31T18:47:26.181Z,18.07
2022-12-31T18:49:55.071Z,12.17
2022-12-31T18:52:29.671Z,5.90
2022-12-31T18:55:04.033Z,6.70
2022-12-31T18:57:44.045Z,8.87
2022-12-31T19:00:15.871Z,8.93
2022-12-31T19:05:34.020Z,17.13
2022-12-31T19:08:03.586Z,12.70
2022-12-31T19:10:46.175Z,11.70
2022-12-31T19:13:20.397Z,12.37
2022-12-31T19:16:01.560Z,11.97
2022-12-31T19:18:34.195Z,9.50
2022-12-31T19:21:04.375Z,14.40
2022-12-31T19:23:35.231Z,14.67
2022-12-31T19:26:04.854Z,16.07
2022-12-31T19:28:36.361Z,17.00
2022-12-31T19:31:11.132Z,14.13
2022-12-31T19:33:42.725Z,11.53
2022-12-31T19:36:18.618Z,24.27
2022-12-31T19:38:47.484Z,12.10
2022-12-31T19:41:18.044Z,10.57
2022-12-31T19:43:47.945Z,26.07
2022-12-31T19:46:21.900Z,22.97
2022-12-31T19:48:50.662Z,23.00
2022-12-31T19:51:22.721Z,27.63
2022-12-31T19:53:51.490Z,53.47
2022-12-31T19:56:40.795Z,29.70
2022-12-31T19:59:10.514Z,26.47
2022-12-31T20:01:43.111Z,29.80
2022-12-31T20:04:22.486Z,23.03
2022-12-31T20:06:54.307Z,23.00
2022-12-31T20:09:29.301Z,19.90
2022-12-31T20:11:57.950Z,25.43
2022-12-31T20:14:26.651Z,20.70
2022-12-31T20:16:57.355Z,29.13
2022-12-31T20:19:51.800Z,23.63
2022-12-31T20:22:20.584Z,20.00
2022-12-31T20:24:49.430Z,24.73
2022-12-31T20:27:21.017Z,23.83
2022-12-31T20:29:49.912Z,20.93
2022-12-31T20:32:20.445Z,24.40
2022-12-31T20:34:52.200Z,25.03
2022-12-31T20:37:23.748Z,21.63
2022-12-31T20:39:52.230Z,17.33
2022-12-31T20:42:21.065Z,15.17
2022-12-31T20:44:49.918Z,18.90
2022-12-31T20:47:22.697Z,19.30
2022-12-31T20:50:11.180Z,18.27
2022-12-31T20:52:44.661Z,25.27
2022-12-31T20:55:19.235Z,27.87
2022-12-31T20:57:48.020Z,22.40
2022-12-31T21:00:16.875Z,30.43
2022-12-31T21:02:56.296Z,25.53
2022-12-31T21:05:26.907Z,37.17
2022-12-31T21:07:55.971Z,23.17
2022-12-31T21:10:25.212Z,21.93
2022-12-31T21:12:57.564Z,40.33
2022-12-31T21:15:28.685Z,91.30
2022-12-31T21:18:01.075Z,70.10
2022-12-31T21:20:30.683Z,59.40
2022-12-31T21:22:59.456Z,45.50
2022-12-31T21:25:28.041Z,33.90
2022-12-31T21:27:56.861Z,27.43
2022-12-31T21:30:25.887Z,34.47
2022-12-31T21:32:54.639Z,36.50
2022-12-31T21:35:45.601Z,46.23
2022-12-31T21:38:14.681Z,27.40
2022-12-31T21:40:46.120Z,39.30
2022-12-31T21:43:15.241Z,33.40
2022-12-31T21:45:46.060Z,23.00
2022-12-31T21:48:23.488Z,19.60
2022-12-31T21:50:55.920Z,18.00
2022-12-31T21:53:29.212Z,20.13
2022-12-31T21:56:16.460Z,20.37
2022-12-31T21:58:46.129Z,22.00
2022-12-31T22:01:35.729Z,16.70
2022-12-31T22:04:05.386Z,21.23
2022-12-31T22:06:38.027Z,24.93
2022-12-31T22:09:06.708Z,30.20
2022-12-31T22:11:38.308Z,37.27
2022-12-31T22:14:07.261Z,45.93
2022-12-31T22:16:35.890Z,33.57
2022-12-31T22:19:04.405Z,41.17
2022-12-31T22:21:36.021Z,44.63
2022-12-31T22:24:09.012Z,26.20
2022-12-31T22:26:54.194Z,34.90
2022-12-31T22:29:26.063Z,23.50
2022-12-31T22:32:01.049Z,23.00
2022-12-31T22:34:32.887Z,30.40
2022-12-31T22:37:14.294Z,24.40
2022-12-31T22:39:52.027Z,25.27
2022-12-31T22:42:22.830Z,19.40
2022-12-31T22:44:52.832Z,17.97
2022-12-31T22:47:22.386Z,15.70
2022-12-31T22:49:50.979Z,21.93
2022-12-31T22:52:19.636Z,18.50
2022-12-31T22:54:48.246Z,15.43
2022-12-31T22:57:20.281Z,14.90
2022-12-31T22:59:49.336Z,19.60
2022-12-31T23:02:17.735Z,23.83
2022-12-31T23:05:14.717Z,17.87
2022-12-31T23:07:45.294Z,59.13
2022-12-31T23:10:32.205Z,230.00
2022-12-31T23:13:16.714Z,452.53
2022-12-31T23:16:11.345Z,499.93
2022-12-31T23:19:05.197Z,453.67
2022-12-31T23:21:51.463Z,460.93
2022-12-31T23:24:35.323Z,550.13
2022-12-31T23:27:06.304Z,438.93
2022-12-31T23:29:47.807Z,366.37
2022-12-31T23:32:19.609Z,385.93
2022-12-31T23:34:58.136Z,272.77
2022-12-31T23:37:29.208Z,207.83
2022-12-31T23:40:32.806Z,219.97
2022-12-31T23:43:22.580Z,361.77
2022-12-31T23:45:58.835Z,346.93
2022-12-31T23:48:32.223Z,221.80
2022-12-31T23:51:05.728Z,183.13
2022-12-31T23:53:39.538Z,301.03
2022-12-31T23:56:20.939Z,204.20
2022-12-31T23:59:41.110Z,244.43
